createdAt,value
2019-03-05T00:00:30.596Z,0
2019-03-05T00:01:11.183Z,0
2019-03-05T00:01:51.774Z,0
2019-03-05T00:02:32.364Z,0
2019-03-05T00:03:13.011Z,0
2019-03-05T00:03:53.590Z,0
2019-03-05T00:04:34.185Z,0
2019-03-05T00:05:14.830Z,0
2019-03-05T00:05:55.510Z,0
2019-03-05T00:06:36.105Z,0
2019-03-05T00:07:16.701Z,0
2019-03-05T00:07:57.323Z,0
2019-03-05T00:08:37.919Z,0
2019-03-05T00:09:18.540Z,0
2019-03-05T00:09:59.129Z,0
2019-03-05T00:10:39.735Z,0
2019-03-05T00:11:20.330Z,0
2019-03-05T00:12:00.981Z,0
2019-03-05T00:12:41.575Z,0
2019-03-05T00:13:22.178Z,0
2019-03-05T00:14:02.851Z,0
2019-03-05T00:14:43.539Z,0
2019-03-05T00:15:24.175Z,0
2019-03-05T00:16:04.835Z,0
2019-03-05T00:16:45.435Z,0
2019-03-05T00:17:26.032Z,0
2019-03-05T00:18:06.612Z,0
2019-03-05T00:18:47.201Z,0
2019-03-05T00:19:27.809Z,0
2019-03-05T00:20:08.395Z,0
2019-03-05T00:20:48.989Z,0
2019-03-05T00:21:29.581Z,0
2019-03-05T00:22:10.189Z,0
2019-03-05T00:24:45.949Z,0
2019-03-05T00:25:26.539Z,0
2019-03-05T00:26:07.179Z,0
2019-03-05T00:26:47.767Z,0
2019-03-05T00:27:28.353Z,0
2019-03-05T00:28:08.944Z,0
2019-03-05T00:28:49.559Z,0
2019-03-05T00:29:30.147Z,0
2019-03-05T00:30:10.741Z,0
2019-03-05T00:30:51.327Z,0
2019-03-05T00:31:31.974Z,0
2019-03-05T00:32:12.570Z,0
2019-03-05T00:32:53.171Z,0
2019-03-05T00:33:33.780Z,0
2019-03-05T00:34:14.397Z,0
2019-03-05T00:34:55.007Z,0
2019-03-05T00:35:35.599Z,0
2019-03-05T00:36:16.186Z,0
2019-03-05T00:36:56.877Z,0
2019-03-05T00:37:37.461Z,0
2019-03-05T00:38:18.067Z,0
2019-03-05T00:38:58.696Z,0
2019-03-05T00:39:39.297Z,0
2019-03-05T00:40:19.889Z,0
2019-03-05T00:41:00.531Z,0
2019-03-05T00:41:41.120Z,0
2019-03-05T00:42:21.713Z,0
2019-03-05T00:43:02.310Z,0
2019-03-05T00:43:42.897Z,0
2019-03-05T00:44:23.491Z,0
2019-03-05T00:45:04.122Z,0
2019-03-05T00:45:44.732Z,0
2019-03-05T00:46:25.330Z,0
2019-03-05T00:47:05.918Z,0
2019-03-05T00:47:46.509Z,0
2019-03-05T00:48:27.107Z,0
2019-03-05T00:49:07.699Z,0
2019-03-05T00:49:48.324Z,0
2019-03-05T00:50:28.925Z,0
2019-03-05T00:51:09.522Z,0
2019-03-05T00:51:50.106Z,0
2019-03-05T00:52:30.702Z,0
2019-03-05T00:53:11.287Z,0
2019-03-05T00:53:51.879Z,0
2019-03-05T00:54:32.476Z,0
2019-03-05T00:55:13.067Z,0
2019-03-05T00:55:53.653Z,0
2019-03-05T00:56:34.261Z,0
2019-03-05T00:57:14.869Z,0
2019-03-05T00:57:55.454Z,0
2019-03-05T00:58:36.067Z,0
2019-03-05T00:59:16.651Z,0
2019-03-05T00:59:57.243Z,0
2019-03-05T01:00:37.832Z,0
2019-03-05T01:01:18.418Z,0
2019-03-05T01:01:59.013Z,0
2019-03-05T01:02:39.633Z,0
2019-03-05T01:03:20.235Z,0
2019-03-05T01:04:00.821Z,0
2019-03-05T01:04:41.415Z,0
2019-03-05T01:05:22.028Z,0
2019-03-05T01:06:02.599Z,0
2019-03-05T01:06:43.185Z,0
2019-03-05T01:07:23.779Z,0
2019-03-05T01:08:04.367Z,0
2019-03-05T01:08:44.986Z,0
2019-03-05T01:09:25.579Z,0
2019-03-05T01:10:06.170Z,0
2019-03-05T01:10:46.764Z,0
2019-03-05T01:11:27.346Z,0
2019-03-05T01:12:07.936Z,0
2019-03-05T01:12:48.517Z,0
2019-03-05T01:13:29.113Z,0
2019-03-05T01:14:09.695Z,0
2019-03-05T01:14:50.293Z,0
2019-03-05T01:15:30.900Z,0
2019-03-05T01:16:11.484Z,0
2019-03-05T01:16:52.112Z,0
2019-03-05T01:17:32.703Z,0
2019-03-05T01:18:13.299Z,0
2019-03-05T01:18:53.900Z,0
2019-03-05T01:19:34.481Z,0
2019-03-05T01:20:15.072Z,0
2019-03-05T01:20:55.671Z,0
2019-03-05T01:21:36.264Z,0
2019-03-05T01:22:16.838Z,0
2019-03-05T01:22:57.451Z,0
2019-03-05T01:23:38.076Z,0
2019-03-05T01:24:18.670Z,0
2019-03-05T01:24:59.260Z,0
2019-03-05T01:25:39.855Z,0
2019-03-05T01:26:20.434Z,0
2019-03-05T01:27:01.040Z,0
2019-03-05T01:27:41.626Z,0
2019-03-05T01:28:22.215Z,0
2019-03-05T01:29:02.803Z,0
2019-03-05T01:29:43.402Z,0
2019-03-05T01:30:24.003Z,0
2019-03-05T01:31:04.607Z,0
2019-03-05T01:31:45.211Z,0
2019-03-05T01:32:25.799Z,0
2019-03-05T01:33:06.461Z,0
2019-03-05T01:33:46.993Z,0
2019-03-05T01:34:27.580Z,0
2019-03-05T01:35:08.169Z,0
2019-03-05T01:35:48.767Z,0
2019-03-05T01:36:29.379Z,0
2019-03-05T01:37:09.954Z,0
2019-03-05T01:37:50.578Z,0
2019-03-05T01:38:31.171Z,0
2019-03-05T01:39:11.745Z,0
2019-03-05T01:39:52.335Z,0
2019-03-05T01:40:32.921Z,0
2019-03-05T01:41:13.518Z,0
2019-03-05T01:41:54.131Z,0
2019-03-05T01:42:34.722Z,0
2019-03-05T01:43:15.319Z,0
2019-03-05T01:43:55.899Z,0
2019-03-05T01:44:36.491Z,0
2019-03-05T01:45:17.096Z,0
2019-03-05T01:45:57.694Z,0
2019-03-05T01:46:38.304Z,0
2019-03-05T01:47:18.892Z,0
2019-03-05T01:47:59.506Z,0
2019-03-05T01:48:40.129Z,0
2019-03-05T01:49:20.737Z,0
2019-03-05T01:50:01.331Z,0
2019-03-05T01:50:41.964Z,0
2019-03-05T01:51:22.557Z,0
2019-03-05T01:52:03.166Z,0
2019-03-05T01:52:43.776Z,0
2019-03-05T01:53:24.364Z,0
2019-03-05T01:54:04.958Z,0
2019-03-05T01:54:45.540Z,0
2019-03-05T01:55:26.120Z,0
2019-03-05T01:56:06.746Z,0
2019-03-05T01:56:47.330Z,0
2019-03-05T01:57:27.920Z,0
2019-03-05T01:58:08.531Z,0
2019-03-05T01:58:49.135Z,0
2019-03-05T01:59:29.733Z,0
2019-03-05T02:00:11.761Z,0
2019-03-05T02:00:50.901Z,0
2019-03-05T02:01:31.496Z,0
2019-03-05T02:02:12.086Z,0
2019-03-05T02:02:52.684Z,0
2019-03-05T02:03:33.288Z,0
2019-03-05T02:04:13.866Z,0
2019-03-05T02:04:54.515Z,0
2019-03-05T02:05:35.126Z,0
2019-03-05T02:06:15.736Z,0
2019-03-05T02:06:56.311Z,0
2019-03-05T02:07:36.923Z,0
2019-03-05T02:08:17.510Z,0
2019-03-05T02:08:58.099Z,0
2019-03-05T02:09:38.694Z,0
2019-03-05T02:10:19.292Z,0
2019-03-05T02:10:59.880Z,0
2019-03-05T02:11:40.469Z,0
2019-03-05T02:12:21.071Z,0
2019-03-05T02:13:01.667Z,0
2019-03-05T02:13:42.252Z,0
2019-03-05T02:14:22.898Z,0
2019-03-05T02:15:03.485Z,0
2019-03-05T02:15:44.068Z,0
2019-03-05T02:16:24.660Z,0
2019-03-05T02:17:05.254Z,0
2019-03-05T02:17:45.840Z,0
2019-03-05T02:18:26.446Z,0
2019-03-05T02:19:07.116Z,0
2019-03-05T02:19:47.704Z,0
2019-03-05T02:20:28.291Z,0
2019-03-05T02:21:08.904Z,0
2019-03-05T02:21:49.490Z,0
2019-03-05T02:22:30.084Z,0
2019-03-05T02:23:10.686Z,0
2019-03-05T02:23:51.316Z,0
2019-03-05T02:24:31.900Z,0
2019-03-05T02:25:12.504Z,0
2019-03-05T02:25:53.108Z,0
2019-03-05T02:26:33.721Z,0
2019-03-05T02:27:14.304Z,0
2019-03-05T02:27:54.912Z,0
2019-03-05T02:28:35.517Z,0
2019-03-05T02:29:16.110Z,0
2019-03-05T02:29:56.698Z,0
2019-03-05T02:30:37.278Z,0
2019-03-05T02:31:17.859Z,0
2019-03-05T02:31:58.455Z,0
2019-03-05T02:32:39.054Z,0
2019-03-05T02:33:19.656Z,0
2019-03-05T02:34:00.256Z,0
2019-03-05T02:34:40.840Z,0
2019-03-05T02:35:21.430Z,0
2019-03-05T02:36:02.021Z,0
2019-03-05T02:36:42.605Z,0
2019-03-05T02:37:23.196Z,0
2019-03-05T02:38:05.580Z,0
2019-03-05T02:38:44.376Z,0
2019-03-05T02:39:24.991Z,0
2019-03-05T02:40:05.593Z,0
2019-03-05T02:40:46.180Z,0
2019-03-05T02:41:26.751Z,0
2019-03-05T02:42:07.343Z,0
2019-03-05T02:42:47.930Z,0
2019-03-05T02:43:28.524Z,0
2019-03-05T02:44:09.114Z,0
2019-03-05T02:44:49.694Z,0
2019-03-05T02:45:31.666Z,0
2019-03-05T02:46:10.882Z,0
2019-03-05T02:46:51.476Z,0
2019-03-05T02:47:32.050Z,0
2019-03-05T02:48:12.643Z,0
2019-03-05T02:48:53.239Z,0
2019-03-05T02:49:33.838Z,0
2019-03-05T02:50:14.427Z,0
2019-03-05T02:50:55.033Z,0
2019-03-05T02:51:35.623Z,0
2019-03-05T02:52:16.215Z,0
2019-03-05T02:53:00.231Z,0
2019-03-05T02:53:37.425Z,0
2019-03-05T02:54:18.015Z,0
2019-03-05T02:54:58.599Z,0
2019-03-05T02:55:39.181Z,0
2019-03-05T02:56:19.762Z,0
2019-03-05T02:57:00.372Z,0
2019-03-05T02:57:40.988Z,0
2019-03-05T02:58:21.586Z,0
2019-03-05T02:59:02.171Z,0
2019-03-05T02:59:42.779Z,0
2019-03-05T03:00:23.389Z,0
2019-03-05T03:01:03.978Z,0
2019-03-05T03:01:44.579Z,0
2019-03-05T03:02:25.183Z,0
2019-03-05T03:03:05.758Z,0
2019-03-05T03:03:46.347Z,0
2019-03-05T03:04:26.940Z,0
2019-03-05T03:05:07.550Z,0
2019-03-05T03:05:48.137Z,0
2019-03-05T03:06:28.721Z,0
2019-03-05T03:07:09.327Z,0
2019-03-05T03:07:49.915Z,0
2019-03-05T03:08:30.494Z,0
2019-03-05T03:09:11.071Z,0
2019-03-05T03:09:51.651Z,0
2019-03-05T03:10:32.231Z,0
2019-03-05T03:11:12.825Z,0
2019-03-05T03:11:53.405Z,0
2019-03-05T03:12:34.010Z,0
2019-03-05T03:13:14.593Z,0
2019-03-05T03:13:55.177Z,0
2019-03-05T03:14:35.767Z,0
2019-03-05T03:15:16.361Z,0
2019-03-05T03:15:56.941Z,0
2019-03-05T03:16:37.534Z,0
2019-03-05T03:17:18.131Z,0
2019-03-05T03:17:58.717Z,0
2019-03-05T03:18:39.313Z,0
2019-03-05T03:19:19.913Z,0
2019-03-05T03:20:00.673Z,0
2019-03-05T03:20:41.137Z,0
2019-03-05T03:21:21.728Z,0
2019-03-05T03:22:02.314Z,0
2019-03-05T03:22:42.919Z,0
2019-03-05T03:23:23.499Z,0
2019-03-05T03:24:04.095Z,0
2019-03-05T03:24:44.690Z,0
2019-03-05T03:25:25.276Z,0
2019-03-05T03:26:05.863Z,0
2019-03-05T03:26:46.466Z,0
2019-03-05T03:27:27.048Z,0
2019-03-05T03:28:07.631Z,0
2019-03-05T03:28:48.212Z,0
2019-03-05T03:29:28.806Z,0
2019-03-05T03:30:09.395Z,0
2019-03-05T03:30:49.991Z,0
2019-03-05T03:31:30.567Z,0
2019-03-05T03:32:11.153Z,0
2019-03-05T03:32:51.760Z,0
2019-03-05T03:33:32.371Z,0
2019-03-05T03:34:12.940Z,0
2019-03-05T03:34:53.509Z,0
2019-03-05T03:35:34.105Z,0
2019-03-05T03:36:14.703Z,0
2019-03-05T03:36:55.285Z,0
2019-03-05T03:37:35.881Z,0
2019-03-05T03:38:16.485Z,0
2019-03-05T03:38:57.145Z,0
2019-03-05T03:39:37.736Z,0
2019-03-05T03:40:18.349Z,0
2019-03-05T03:40:58.934Z,0
2019-03-05T03:41:39.541Z,0
2019-03-05T03:42:20.133Z,0
2019-03-05T03:43:00.731Z,0
2019-03-05T03:43:41.325Z,0
2019-03-05T03:44:21.920Z,0
2019-03-05T03:45:02.521Z,0
2019-03-05T03:45:43.093Z,0
2019-03-05T03:46:23.696Z,0
2019-03-05T03:47:04.292Z,0
2019-03-05T03:47:44.877Z,0
2019-03-05T03:48:25.455Z,0
2019-03-05T03:49:06.045Z,0
2019-03-05T03:49:46.637Z,0
2019-03-05T03:50:27.235Z,0
2019-03-05T03:51:07.817Z,0
2019-03-05T03:51:51.194Z,0
2019-03-05T03:52:29.005Z,0
2019-03-05T03:53:09.591Z,0
2019-03-05T03:53:50.215Z,0
2019-03-05T03:54:30.816Z,0
2019-03-05T03:55:11.457Z,0
2019-03-05T03:55:52.038Z,0
2019-03-05T03:56:32.623Z,0
2019-03-05T03:57:13.235Z,0
2019-03-05T03:57:53.827Z,0
2019-03-05T03:58:34.439Z,0
2019-03-05T03:59:15.039Z,0
2019-03-05T03:59:55.629Z,0
2019-03-05T04:00:36.211Z,0
2019-03-05T04:01:16.811Z,0
2019-03-05T04:01:57.400Z,0
2019-03-05T04:02:37.996Z,0
2019-03-05T04:03:18.582Z,0
2019-03-05T04:03:59.177Z,0
2019-03-05T04:04:39.784Z,0
2019-03-05T04:05:20.372Z,0
2019-03-05T04:06:00.951Z,0
2019-03-05T04:06:41.539Z,0
2019-03-05T04:07:22.142Z,0
2019-03-05T04:08:02.741Z,0
2019-03-05T04:08:43.319Z,0
2019-03-05T04:09:23.903Z,0
2019-03-05T04:10:04.497Z,0
2019-03-05T04:10:45.089Z,0
2019-03-05T04:11:25.679Z,0
2019-03-05T04:12:06.271Z,0
2019-03-05T04:12:46.923Z,0
2019-03-05T04:13:27.508Z,0
2019-03-05T04:14:08.101Z,0
2019-03-05T04:14:48.687Z,0
2019-03-05T04:15:29.279Z,0
2019-03-05T04:16:09.871Z,0
2019-03-05T04:16:50.470Z,0
2019-03-05T04:17:31.052Z,0
2019-03-05T04:18:11.647Z,0
2019-03-05T04:18:52.232Z,0
2019-03-05T04:19:32.831Z,0
2019-03-05T04:20:13.425Z,0
2019-03-05T04:20:54.014Z,0
2019-03-05T04:21:34.603Z,0
2019-03-05T04:22:15.192Z,0
2019-03-05T04:22:55.769Z,0
2019-03-05T04:23:36.358Z,0
2019-03-05T04:24:16.941Z,0
2019-03-05T04:24:57.583Z,0
2019-03-05T04:25:38.176Z,0
2019-03-05T04:26:18.773Z,0
2019-03-05T04:26:59.383Z,0
2019-03-05T04:27:39.985Z,0
2019-03-05T04:28:20.591Z,0
2019-03-05T04:29:01.171Z,0
2019-03-05T04:29:41.759Z,0
2019-03-05T04:30:22.347Z,0
2019-03-05T04:31:02.933Z,0
2019-03-05T04:31:43.517Z,0
2019-03-05T04:32:24.178Z,0
2019-03-05T04:33:04.719Z,0
2019-03-05T04:33:45.323Z,0
2019-03-05T04:34:25.897Z,0
2019-03-05T04:35:06.489Z,0
2019-03-05T04:35:47.077Z,0
2019-03-05T04:36:27.665Z,0
2019-03-05T04:37:08.255Z,0
2019-03-05T04:37:48.850Z,0
2019-03-05T04:38:29.431Z,0
2019-03-05T04:39:10.017Z,0
2019-03-05T04:39:50.632Z,0
2019-03-05T04:40:31.231Z,0
2019-03-05T04:41:11.854Z,0
2019-03-05T04:41:52.476Z,0
2019-03-05T04:42:33.077Z,0
2019-03-05T04:43:13.689Z,0
2019-03-05T04:43:54.276Z,0
2019-03-05T04:44:34.868Z,0
2019-03-05T04:45:15.455Z,0
2019-03-05T04:45:56.047Z,0
2019-03-05T04:46:36.644Z,0
2019-03-05T04:47:17.242Z,0
2019-03-05T04:47:57.845Z,0
2019-03-05T04:48:38.435Z,0
2019-03-05T04:49:19.033Z,0
2019-03-05T04:49:59.637Z,0
2019-03-05T04:50:40.224Z,0
2019-03-05T04:51:20.809Z,0
2019-03-05T04:52:01.395Z,0
2019-03-05T04:52:42.011Z,0
2019-03-05T04:53:22.612Z,0
2019-03-05T04:54:03.219Z,0
2019-03-05T04:54:43.813Z,0
2019-03-05T04:55:24.419Z,0
2019-03-05T04:56:05.024Z,0
2019-03-05T04:56:45.597Z,0
2019-03-05T04:57:26.189Z,0
2019-03-05T04:58:06.780Z,0
2019-03-05T04:58:47.377Z,0
2019-03-05T04:59:28.063Z,0
2019-03-05T05:00:08.572Z,0
2019-03-05T05:00:49.159Z,0
2019-03-05T05:01:29.777Z,0
2019-03-05T05:02:10.376Z,0
2019-03-05T05:02:50.968Z,0
2019-03-05T05:03:31.548Z,0
2019-03-05T05:04:12.141Z,0
2019-03-05T05:04:52.731Z,0
2019-03-05T05:05:33.320Z,0
2019-03-05T05:06:13.895Z,0
2019-03-05T05:06:54.483Z,0
2019-03-05T05:07:35.069Z,0
2019-03-05T05:08:15.652Z,0
2019-03-05T05:08:56.277Z,0
2019-03-05T05:09:37.825Z,0
2019-03-05T05:10:17.461Z,0
2019-03-05T05:10:58.047Z,0
2019-03-05T05:11:38.641Z,0
2019-03-05T05:12:19.231Z,0
2019-03-05T05:12:59.839Z,0
2019-03-05T05:13:40.437Z,0
2019-03-05T05:14:21.038Z,0
2019-03-05T05:15:01.628Z,0
2019-03-05T05:15:42.218Z,0
2019-03-05T05:16:22.833Z,0
2019-03-05T05:17:03.420Z,0
2019-03-05T05:17:44.007Z,0
2019-03-05T05:18:24.645Z,0
2019-03-05T05:19:05.241Z,0
2019-03-05T05:19:45.845Z,0
2019-03-05T05:20:26.433Z,0
2019-03-05T05:21:07.018Z,0
2019-03-05T05:21:47.611Z,0
2019-03-05T05:22:28.212Z,0
2019-03-05T05:23:08.797Z,0
2019-03-05T05:23:49.434Z,0
2019-03-05T05:24:30.028Z,0
2019-03-05T05:25:10.636Z,0
2019-03-05T05:25:51.227Z,0
2019-03-05T05:26:31.848Z,0
2019-03-05T05:27:12.443Z,0
2019-03-05T05:27:53.043Z,0
2019-03-05T05:28:33.637Z,0
2019-03-05T05:29:14.224Z,0
2019-03-05T05:29:54.805Z,0
2019-03-05T05:30:35.391Z,0
2019-03-05T05:31:15.964Z,0
2019-03-05T05:31:58.356Z,0
2019-03-05T05:32:37.141Z,0
2019-03-05T05:33:17.742Z,0
2019-03-05T05:33:58.333Z,0
2019-03-05T05:34:38.927Z,0
2019-03-05T05:35:19.550Z,0
2019-03-05T05:36:00.127Z,0
2019-03-05T05:36:40.719Z,0
2019-03-05T05:37:21.339Z,0
2019-03-05T05:38:01.929Z,0
2019-03-05T05:38:42.523Z,0
2019-03-05T05:39:23.104Z,0
2019-03-05T05:40:04.803Z,0
2019-03-05T05:40:44.283Z,0
2019-03-05T05:41:24.863Z,0
2019-03-05T05:42:05.455Z,0
2019-03-05T05:42:46.049Z,0
2019-03-05T05:43:26.629Z,0
2019-03-05T05:44:07.223Z,0
2019-03-05T05:44:47.813Z,0
2019-03-05T05:45:28.423Z,0
2019-03-05T05:46:09.021Z,0
2019-03-05T05:46:49.653Z,0
2019-03-05T05:47:30.240Z,0
2019-03-05T05:48:10.837Z,0
2019-03-05T05:48:51.439Z,0
2019-03-05T05:49:32.035Z,0
2019-03-05T05:50:12.618Z,0
2019-03-05T05:50:53.203Z,0
2019-03-05T05:51:33.797Z,0
2019-03-05T05:52:14.389Z,0
2019-03-05T05:52:54.983Z,0
2019-03-05T05:53:35.578Z,0
2019-03-05T05:54:16.160Z,0
2019-03-05T05:54:56.755Z,0
2019-03-05T05:55:37.343Z,0
2019-03-05T05:56:17.929Z,0
2019-03-05T05:56:58.521Z,0
2019-03-05T05:57:39.117Z,0
2019-03-05T05:58:19.705Z,0
2019-03-05T05:59:00.285Z,0
2019-03-05T05:59:40.883Z,0
2019-03-05T06:00:21.481Z,0
2019-03-05T06:01:02.083Z,0
2019-03-05T06:01:42.664Z,0
2019-03-05T06:02:23.311Z,0
2019-03-05T06:03:03.932Z,0
2019-03-05T06:03:44.521Z,0
2019-03-05T06:04:25.133Z,0
2019-03-05T06:05:05.729Z,0
2019-03-05T06:05:46.356Z,0
2019-03-05T06:06:26.955Z,0
2019-03-05T06:07:07.571Z,0
2019-03-05T06:07:48.170Z,0
2019-03-05T06:08:28.755Z,0
2019-03-05T06:09:09.381Z,0
2019-03-05T06:09:49.973Z,0
2019-03-05T06:10:30.561Z,0
2019-03-05T06:11:11.147Z,0
2019-03-05T06:11:51.761Z,0
2019-03-05T06:12:32.349Z,0
2019-03-05T06:13:12.937Z,0
2019-03-05T06:13:53.535Z,0
2019-03-05T06:14:34.131Z,0
2019-03-05T06:15:14.813Z,0
2019-03-05T06:15:55.326Z,0
2019-03-05T06:16:35.913Z,0
2019-03-05T06:17:16.497Z,0
2019-03-05T06:17:57.077Z,0
2019-03-05T06:18:37.687Z,0
2019-03-05T06:19:18.431Z,4
2019-03-05T06:19:59.099Z,4
2019-03-05T06:20:42.356Z,4
2019-03-05T06:21:20.293Z,4
2019-03-05T06:22:00.881Z,4
2019-03-05T06:22:41.481Z,4
2019-03-05T06:23:22.061Z,4
2019-03-05T06:24:02.651Z,4
2019-03-05T06:24:43.245Z,4
2019-03-05T06:25:23.841Z,4
2019-03-05T06:26:04.452Z,0
2019-03-05T06:26:45.068Z,0
2019-03-05T06:27:25.689Z,4
2019-03-05T06:28:06.281Z,4
2019-03-05T06:28:46.865Z,4
2019-03-05T06:29:27.468Z,4
2019-03-05T06:30:08.065Z,4
2019-03-05T06:30:48.647Z,4
2019-03-05T06:31:29.227Z,4
2019-03-05T06:32:09.839Z,4
2019-03-05T06:32:50.433Z,8
2019-03-05T06:33:31.019Z,4
2019-03-05T06:34:11.623Z,4
2019-03-05T06:34:52.285Z,8
2019-03-05T06:35:32.881Z,8
2019-03-05T06:36:13.464Z,8
2019-03-05T06:36:54.053Z,8
2019-03-05T06:37:34.640Z,8
2019-03-05T06:38:15.229Z,8
2019-03-05T06:38:55.803Z,8
2019-03-05T06:39:36.397Z,8
2019-03-05T06:40:16.976Z,12
2019-03-05T06:40:57.595Z,12
2019-03-05T06:41:38.201Z,12
2019-03-05T06:42:18.783Z,12
2019-03-05T06:42:59.384Z,12
2019-03-05T06:43:39.965Z,16
2019-03-05T06:44:20.555Z,12
2019-03-05T06:45:01.149Z,16
2019-03-05T06:45:41.751Z,16
2019-03-05T06:46:22.335Z,16
2019-03-05T06:47:02.924Z,16
2019-03-05T06:47:43.513Z,20
2019-03-05T06:48:24.103Z,20
2019-03-05T06:49:04.694Z,20
2019-03-05T06:49:45.281Z,20
2019-03-05T06:50:25.871Z,24
2019-03-05T06:51:06.461Z,24
2019-03-05T06:51:47.053Z,28
2019-03-05T06:52:27.669Z,28
2019-03-05T06:53:08.258Z,28
2019-03-05T06:53:48.836Z,32
2019-03-05T06:54:29.423Z,32
2019-03-05T06:55:10.012Z,32
2019-03-05T06:55:50.636Z,36
2019-03-05T06:56:31.285Z,36
2019-03-05T06:57:11.947Z,36
2019-03-05T06:57:52.547Z,40
2019-03-05T06:58:33.132Z,40
2019-03-05T06:59:13.724Z,40
2019-03-05T06:59:54.319Z,44
2019-03-05T07:00:34.937Z,44
2019-03-05T07:01:15.533Z,44
2019-03-05T07:03:36.028Z,52
2019-03-05T07:04:16.616Z,52
2019-03-05T07:04:57.217Z,48
2019-03-05T07:05:37.878Z,52
2019-03-05T07:06:18.419Z,52
2019-03-05T07:06:59.009Z,56
2019-03-05T07:07:39.613Z,52
2019-03-05T07:08:20.255Z,56
2019-03-05T07:09:00.869Z,56
2019-03-05T07:09:41.467Z,60
2019-03-05T07:10:22.058Z,60
2019-03-05T07:11:02.662Z,56
2019-03-05T07:11:43.247Z,60
2019-03-05T07:12:25.666Z,60
2019-03-05T07:13:06.259Z,60
2019-03-05T07:13:46.849Z,64
2019-03-05T07:14:27.449Z,64
2019-03-05T07:15:08.057Z,68
2019-03-05T07:15:48.676Z,68
2019-03-05T07:16:29.261Z,68
2019-03-05T07:17:09.876Z,72
2019-03-05T07:17:50.461Z,72
2019-03-05T07:18:32.903Z,72
2019-03-05T07:19:13.484Z,72
2019-03-05T07:19:57.819Z,76
2019-03-05T07:20:34.687Z,76
2019-03-05T07:21:15.313Z,76
2019-03-05T07:21:55.897Z,80
2019-03-05T07:22:36.527Z,80
2019-03-05T07:23:17.127Z,80
2019-03-05T07:23:57.728Z,84
2019-03-05T07:24:38.383Z,84
2019-03-05T07:25:18.908Z,84
2019-03-05T07:25:59.501Z,88
2019-03-05T07:26:40.109Z,84
2019-03-05T07:27:20.707Z,84
2019-03-05T07:28:01.289Z,88
2019-03-05T07:28:41.873Z,92
2019-03-05T07:29:22.515Z,92
2019-03-05T07:30:03.120Z,92
2019-03-05T07:30:43.715Z,92
2019-03-05T07:31:24.303Z,96
2019-03-05T07:32:04.891Z,96
2019-03-05T07:32:45.483Z,96
2019-03-05T07:33:26.071Z,100
2019-03-05T07:34:06.657Z,100
2019-03-05T07:34:47.278Z,104
2019-03-05T07:35:27.894Z,104
2019-03-05T07:36:08.491Z,108
2019-03-05T07:36:49.081Z,112
2019-03-05T07:37:29.661Z,112
2019-03-05T07:38:10.259Z,112
2019-03-05T07:38:50.852Z,116
2019-03-05T07:39:31.439Z,116
2019-03-05T07:40:12.036Z,120
2019-03-05T07:40:52.645Z,124
2019-03-05T07:41:33.236Z,128
2019-03-05T07:42:13.840Z,124
2019-03-05T07:42:54.496Z,128
2019-03-05T07:43:36.570Z,132
2019-03-05T07:44:15.663Z,136
2019-03-05T07:44:56.256Z,136
2019-03-05T07:45:36.848Z,136
2019-03-05T07:46:17.453Z,140
2019-03-05T07:46:58.107Z,140
2019-03-05T07:47:38.704Z,144
2019-03-05T07:48:19.311Z,144
2019-03-05T07:48:59.900Z,148
2019-03-05T07:49:43.987Z,148
2019-03-05T07:50:21.121Z,152
2019-03-05T07:51:01.715Z,152
2019-03-05T07:51:42.320Z,156
2019-03-05T07:52:22.921Z,156
2019-03-05T07:53:03.536Z,156
2019-03-05T07:53:44.126Z,156
2019-03-05T07:54:24.717Z,160
2019-03-05T07:55:13.133Z,160
2019-03-05T07:55:45.929Z,164
2019-03-05T07:56:26.533Z,164
2019-03-05T07:57:07.124Z,168
2019-03-05T07:57:47.735Z,172
2019-03-05T07:58:28.340Z,172
2019-03-05T07:59:08.939Z,172
2019-03-05T07:59:49.538Z,176
2019-03-05T08:00:30.192Z,176
2019-03-05T08:01:21.478Z,180
2019-03-05T08:01:51.398Z,180
2019-03-05T08:02:32.001Z,184
2019-03-05T08:03:12.601Z,184
2019-03-05T08:03:53.201Z,188
2019-03-05T08:04:33.820Z,192
2019-03-05T08:05:14.424Z,192
2019-03-05T08:05:55.031Z,196
2019-03-05T08:06:35.620Z,200
2019-03-05T08:07:16.234Z,200
2019-03-05T08:07:56.820Z,204
2019-03-05T08:08:37.408Z,204
2019-03-05T08:09:18.006Z,204
2019-03-05T08:09:58.595Z,208
2019-03-05T08:10:39.178Z,208
2019-03-05T08:11:19.790Z,216
2019-03-05T08:12:00.406Z,212
2019-03-05T08:12:40.999Z,216
2019-03-05T08:13:21.584Z,216
2019-03-05T08:14:02.197Z,220
2019-03-05T08:14:42.765Z,224
2019-03-05T08:15:23.370Z,224
2019-03-05T08:16:03.966Z,224
2019-03-05T08:16:44.552Z,224
2019-03-05T08:17:25.161Z,228
2019-03-05T08:18:05.754Z,228
2019-03-05T08:18:46.344Z,232
2019-03-05T08:19:26.937Z,232
2019-03-05T08:20:07.528Z,236
2019-03-05T08:20:48.113Z,236
2019-03-05T08:21:28.710Z,240
2019-03-05T08:22:09.299Z,244
2019-03-05T08:22:49.884Z,240
2019-03-05T08:23:30.559Z,244
2019-03-05T08:24:11.156Z,244
2019-03-05T08:24:51.753Z,248
2019-03-05T08:25:32.379Z,248
2019-03-05T08:26:13.067Z,248
2019-03-05T08:26:53.663Z,252
2019-03-05T08:27:35.264Z,252
2019-03-05T08:28:16.443Z,252
2019-03-05T08:28:57.201Z,256
2019-03-05T08:29:37.845Z,252
2019-03-05T08:30:18.431Z,256
2019-03-05T08:30:59.030Z,260
2019-03-05T08:31:39.632Z,256
2019-03-05T08:32:20.348Z,260
2019-03-05T08:33:00.950Z,260
2019-03-05T08:33:41.536Z,264
2019-03-05T08:34:22.181Z,264
2019-03-05T08:35:02.761Z,264
2019-03-05T08:35:43.359Z,264
2019-03-05T08:36:23.962Z,268
2019-03-05T08:37:04.558Z,268
2019-03-05T08:37:45.147Z,268
2019-03-05T08:38:25.733Z,268
2019-03-05T08:39:06.328Z,272
2019-03-05T08:39:46.924Z,276
2019-03-05T08:40:27.511Z,276
2019-03-05T08:41:08.099Z,280
2019-03-05T08:41:48.695Z,280
2019-03-05T08:42:29.312Z,284
2019-03-05T08:43:09.902Z,284
2019-03-05T08:43:50.484Z,288
2019-03-05T08:44:31.106Z,288
2019-03-05T08:45:11.710Z,292
2019-03-05T08:45:52.303Z,292
2019-03-05T08:46:32.898Z,300
2019-03-05T08:47:13.486Z,304
2019-03-05T08:47:54.075Z,308
2019-03-05T08:48:34.665Z,312
2019-03-05T08:49:17.830Z,316
2019-03-05T08:49:55.861Z,320
2019-03-05T08:50:36.477Z,324
2019-03-05T08:51:17.078Z,324
2019-03-05T08:51:57.688Z,324
2019-03-05T08:52:38.308Z,332
2019-03-05T08:53:18.906Z,332
2019-03-05T08:53:59.513Z,340
2019-03-05T08:54:40.107Z,344
2019-03-05T08:55:20.697Z,352
2019-03-05T08:56:01.306Z,356
2019-03-05T08:56:41.916Z,360
2019-03-05T08:57:22.507Z,368
2019-03-05T08:58:03.131Z,372
2019-03-05T08:58:43.774Z,368
2019-03-05T08:59:24.357Z,376
2019-03-05T09:00:04.982Z,380
2019-03-05T09:00:48.015Z,384
2019-03-05T09:01:26.174Z,384
2019-03-05T09:02:06.783Z,392
2019-03-05T09:02:48.778Z,396
2019-03-05T09:03:27.986Z,400
2019-03-05T09:04:08.586Z,408
2019-03-05T09:04:49.212Z,412
2019-03-05T09:05:29.830Z,428
2019-03-05T09:06:10.457Z,448
2019-03-05T09:06:51.042Z,456
2019-03-05T09:07:31.654Z,460
2019-03-05T09:08:12.263Z,476
2019-03-05T09:08:52.862Z,468
2019-03-05T09:09:33.970Z,480
2019-03-05T09:10:14.522Z,480
2019-03-05T09:10:55.113Z,480
2019-03-05T09:11:35.706Z,488
2019-03-05T09:12:16.311Z,504
2019-03-05T09:12:56.918Z,528
2019-03-05T09:13:37.546Z,544
2019-03-05T09:14:18.134Z,560
2019-03-05T09:14:58.728Z,568
2019-03-05T09:15:39.317Z,588
2019-03-05T09:16:19.950Z,616
2019-03-05T09:17:00.594Z,648
2019-03-05T09:17:41.190Z,716
2019-03-05T09:18:21.808Z,708
2019-03-05T09:19:02.398Z,768
2019-03-05T09:19:43.039Z,924
2019-03-05T09:20:23.628Z,1020
2019-03-05T09:21:04.215Z,1068
2019-03-05T09:21:44.792Z,1024
2019-03-05T09:22:25.442Z,1052
2019-03-05T09:23:06.041Z,952
2019-03-05T09:23:46.632Z,952
2019-03-05T09:24:28.030Z,856
2019-03-05T09:25:08.642Z,928
2019-03-05T09:25:49.328Z,896
2019-03-05T09:26:29.914Z,904
2019-03-05T09:27:10.511Z,884
2019-03-05T09:27:51.113Z,916
2019-03-05T09:28:31.731Z,1076
2019-03-05T09:29:12.320Z,1080
2019-03-05T09:29:52.917Z,1136
2019-03-05T09:30:33.516Z,1160
2019-03-05T09:31:14.156Z,1140
2019-03-05T09:31:54.748Z,1156
2019-03-05T09:32:35.344Z,1188
2019-03-05T09:33:15.944Z,1212
2019-03-05T09:33:56.554Z,1216
2019-03-05T09:34:37.149Z,1232
2019-03-05T09:35:17.741Z,1228
2019-03-05T09:35:58.336Z,1184
2019-03-05T09:36:49.987Z,1220
2019-03-05T09:37:19.542Z,1204
2019-03-05T09:38:00.156Z,1156
2019-03-05T09:38:40.818Z,1096
2019-03-05T09:39:21.743Z,1088
2019-03-05T09:40:02.352Z,1108
2019-03-05T09:40:42.942Z,1080
2019-03-05T09:41:23.558Z,1008
2019-03-05T09:42:04.156Z,968
2019-03-05T09:42:44.838Z,1020
2019-03-05T09:43:25.432Z,1112
2019-03-05T09:44:06.016Z,1068
2019-03-05T09:44:46.616Z,1000
2019-03-05T09:45:28.271Z,964
2019-03-05T09:46:07.819Z,940
2019-03-05T09:46:48.418Z,944
2019-03-05T09:47:29.030Z,932
2019-03-05T09:48:09.650Z,884
2019-03-05T09:48:50.272Z,840
2019-03-05T09:49:30.874Z,800
2019-03-05T09:50:11.464Z,768
2019-03-05T09:50:52.060Z,768
2019-03-05T09:51:32.662Z,784